Time;durP1;ratioP1;P1;durP2;ratioP2;P2;SDS_P1;SDS_P2;PMS_P1;PMS_P2;Temp;Humidity;BMP_temperature;BMP_pressure;BME280_temperature;BME280_humidity;BME280_pressure;Samples;Min_cycle;Max_cycle;Signal;HPM_P1;HPM_P2
2022/11/16 00:01:21;;;;;;;43.40;24.42;;;8.00;99.90;;;;;;4999957;28;20025;-71
2022/11/16 00:03:47;;;;;;;50.88;26.05;;;8.00;99.90;;;;;;4999883;28;20042;-71
2022/11/16 00:06:14;;;;;;;42.55;24.00;;;8.00;99.90;;;;;;4998493;28;20041;-71
2022/11/16 00:08:42;;;;;;;38.80;24.05;;;7.90;99.90;;;;;;4998596;28;20485;-71
2022/11/16 00:11:10;;;;;;;38.13;22.50;;;7.90;99.90;;;;;;4999088;28;20034;-71
2022/11/16 00:13:38;;;;;;;42.60;24.25;;;7.90;99.90;;;;;;4998548;28;20819;-72
2022/11/16 00:16:06;;;;;;;36.85;23.13;;;7.90;99.90;;;;;;5005068;28;20034;-72
2022/11/16 00:18:33;;;;;;;40.85;23.10;;;7.90;99.90;;;;;;4999336;28;20045;-73
2022/11/16 00:20:58;;;;;;;37.70;22.80;;;7.90;99.90;;;;;;4999390;28;20513;-72
2022/11/16 00:23:24;;;;;;;36.85;22.48;;;7.90;99.90;;;;;;4998506;28;20122;-72
2022/11/16 00:25:50;;;;;;;36.03;21.55;;;7.90;99.90;;;;;;4998822;28;20646;-72
2022/11/16 00:28:16;;;;;;;44.47;22.58;;;7.90;99.90;;;;;;4997814;28;20124;-72
2022/11/16 00:30:42;;;;;;;38.95;24.00;;;7.90;99.90;;;;;;4999584;28;20021;-72
2022/11/16 00:33:14;;;;;;;37.67;23.45;;;7.80;99.90;;;;;;4998719;28;20072;-72
2022/11/16 00:35:40;;;;;;;36.38;21.83;;;7.80;99.90;;;;;;4998765;28;20030;-72
2022/11/16 00:38:06;;;;;;;34.95;23.65;;;7.80;99.90;;;;;;4998673;28;20060;-72
2022/11/16 00:40:32;;;;;;;42.83;24.67;;;7.80;99.90;;;;;;5000301;28;20061;-72
2022/11/16 00:42:57;;;;;;;39.33;20.80;;;7.80;99.90;;;;;;5001142;28;20497;-72
2022/11/16 00:45:23;;;;;;;36.22;22.02;;;7.80;99.90;;;;;;4998558;28;20049;-72
2022/11/16 00:47:48;;;;;;;38.75;23.13;;;7.80;99.90;;;;;;4999451;28;20033;-72
2022/11/16 00:50:15;;;;;;;35.05;23.83;;;7.80;99.90;;;;;;4998869;28;20550;-72
2022/11/16 00:52:40;;;;;;;41.60;24.00;;;7.80;99.90;;;;;;4999491;28;20042;-72
2022/11/16 00:55:07;;;;;;;37.28;22.08;;;7.80;99.90;;;;;;4999287;28;20532;-72
2022/11/16 00:57:32;;;;;;;38.60;22.73;;;7.90;99.90;;;;;;4999675;28;20026;-72
2022/11/16 00:59:58;;;;;;;41.97;23.63;;;7.90;99.90;;;;;;4997871;28;20489;-72
2022/11/16 01:02:24;;;;;;;36.03;23.25;;;7.90;99.90;;;;;;5013095;28;20045;-72
2022/11/16 01:04:49;;;;;;;37.33;22.42;;;7.80;99.90;;;;;;4996879;28;20084;-72
2022/11/16 01:07:15;;;;;;;33.70;21.92;;;7.80;99.90;;;;;;5001838;28;20022;-70
2022/11/16 01:09:40;;;;;;;33.42;22.17;;;7.80;99.90;;;;;;4998777;28;20432;-71
2022/11/16 01:12:08;;;;;;;35.30;22.45;;;7.80;99.90;;;;;;5003900;28;20120;-71
2022/11/16 01:14:38;;;;;;;44.88;23.42;;;7.80;99.90;;;;;;4998184;28;20062;-71
2022/11/16 01:17:03;;;;;;;37.92;21.60;;;7.80;99.90;;;;;;4998146;28;20034;-71
2022/11/16 01:19:30;;;;;;;34.65;20.65;;;7.80;99.90;;;;;;5000315;28;20032;-71
2022/11/16 01:21:57;;;;;;;39.92;23.02;;;7.80;99.90;;;;;;4999521;28;20045;-71
2022/11/16 01:24:24;;;;;;;37.35;22.05;;;7.70;99.90;;;;;;4998348;28;20486;-71
2022/11/16 01:26:50;;;;;;;40.72;22.38;;;7.80;99.90;;;;;;4998383;28;20985;-71
2022/11/16 01:29:16;;;;;;;35.35;21.95;;;7.80;99.90;;;;;;4997744;28;20108;-71
2022/11/16 01:31:42;;;;;;;33.70;22.23;;;7.80;99.90;;;;;;4998754;28;20169;-71
2022/11/16 01:34:08;;;;;;;35.35;21.23;;;7.70;99.90;;;;;;4998744;28;20026;-71
2022/11/16 01:36:35;;;;;;;36.40;21.88;;;7.80;99.90;;;;;;4998351;28;20473;-71
2022/11/16 01:39:03;;;;;;;35.70;21.40;;;7.80;99.90;;;;;;4996991;28;20030;-71
2022/11/16 01:41:29;;;;;;;35.47;21.65;;;7.90;99.90;;;;;;4997570;28;20030;-71
2022/11/16 01:44:02;;;;;;;41.10;23.80;;;7.80;99.90;;;;;;4998779;28;20108;-71
2022/11/16 01:46:28;;;;;;;39.22;23.55;;;7.90;99.90;;;;;;4999039;28;20121;-70
2022/11/16 01:49:02;;;;;;;37.80;22.65;;;7.80;99.90;;;;;;4997867;28;20797;-71
2022/11/16 01:51:29;;;;;;;36.00;21.60;;;7.80;99.90;;;;;;5000286;28;20042;-70
2022/11/16 01:53:57;;;;;;;39.08;22.25;;;7.80;99.90;;;;;;4998403;28;20030;-70
2022/11/16 01:56:24;;;;;;;36.25;22.65;;;7.70;99.90;;;;;;5002157;28;20041;-70
2022/11/16 01:58:52;;;;;;;46.38;24.25;;;7.60;99.90;;;;;;4998862;28;20060;-71
2022/11/16 02:01:18;;;;;;;42.47;21.65;;;7.60;99.90;;;;;;5002011;28;20132;-71
2022/11/16 02:03:44;;;;;;;40.10;22.30;;;7.50;99.90;;;;;;5002421;28;20044;-70
2022/11/16 02:06:27;;;;;;;42.20;22.63;;;7.40;99.90;;;;;;5005309;28;20481;-70
2022/11/16 02:12:10;;;;;;;36.97;22.20;;;7.40;99.90;;;;;;5008196;28;20041;-71
2022/11/16 02:14:45;;;;;;;32.08;19.33;;;7.40;99.90;;;;;;5001455;28;20026;-71
2022/11/16 02:17:13;;;;;;;;;;;7.40;99.90;;;;;;5001790;28;20038;-70
2022/11/16 02:19:54;;;;;;;40.15;20.77;;;7.40;99.90;;;;;;5001476;28;19913;-71
2022/11/16 02:22:47;;;;;;;41.22;22.23;;;7.40;99.90;;;;;;5002582;28;20222;-69
2022/11/16 02:25:45;;;;;;;36.75;20.23;;;7.30;99.90;;;;;;5001283;28;20026;-71
2022/11/16 02:28:11;;;;;;;39.13;20.88;;;7.30;99.90;;;;;;4993729;28;20030;-71
2022/11/16 02:30:45;;;;;;;34.03;20.92;;;7.30;99.90;;;;;;5001104;28;20056;-70
2022/11/16 02:33:16;;;;;;;38.15;21.55;;;7.30;99.90;;;;;;5000715;28;20123;-71
2022/11/16 02:35:52;;;;;;;32.53;20.02;;;7.30;99.90;;;;;;5001010;28;20037;-71
2022/11/16 02:38:26;;;;;;;33.58;20.67;;;7.30;99.90;;;;;;5002719;28;20131;-71
2022/11/16 02:40:57;;;;;;;37.88;20.50;;;7.30;99.90;;;;;;5003153;28;20049;-71
2022/11/16 02:43:51;;;;;;;45.28;20.15;;;7.40;99.90;;;;;;5000576;28;20050;-71
2022/11/16 02:46:27;;;;;;;37.30;21.08;;;7.40;99.90;;;;;;5000582;28;20040;-71
2022/11/16 02:48:56;;;;;;;39.50;21.08;;;7.30;99.90;;;;;;5002374;28;20068;-71
2022/11/16 02:51:25;;;;;;;37.42;21.30;;;7.30;99.90;;;;;;5001368;28;20030;-72
2022/11/16 02:54:07;;;;;;;47.20;21.02;;;7.30;99.90;;;;;;5000383;28;20057;-72
2022/11/16 02:56:44;;;;;;;38.50;21.92;;;7.30;99.90;;;;;;5001881;28;20091;-70
2022/11/16 02:59:10;;;;;;;39.50;21.67;;;7.20;99.90;;;;;;5001717;28;20034;-70
2022/11/16 03:01:42;;;;;;;47.75;22.15;;;7.20;99.90;;;;;;5015946;28;20413;-70
2022/11/16 03:04:20;;;;;;;43.85;21.00;;;7.10;99.90;;;;;;5001096;28;20068;-69
2022/11/16 03:06:47;;;;;;;40.90;22.00;;;7.10;99.90;;;;;;5001802;28;20033;-69
2022/11/16 03:09:22;;;;;;;35.15;22.05;;;7.10;99.90;;;;;;5001886;28;20029;-71
2022/11/16 03:12:00;;;;;;;40.65;21.13;;;7.20;99.90;;;;;;5000302;28;20173;-70
2022/11/16 03:14:49;;;;;;;32.05;19.48;;;7.20;99.90;;;;;;5001234;28;20045;-70
2022/11/16 03:17:28;;;;;;;38.38;21.15;;;7.20;99.90;;;;;;5004832;28;20116;-71
2022/11/16 03:20:14;;;;;;;34.13;20.35;;;7.20;99.90;;;;;;5000937;28;20037;-70
2022/11/16 03:23:02;;;;;;;40.78;22.67;;;7.20;99.90;;;;;;5001264;28;20509;-69
2022/11/16 03:25:34;;;;;;;40.60;23.48;;;7.10;99.90;;;;;;5001393;28;20042;-71
2022/11/16 03:28:07;;;;;;;39.08;22.77;;;7.20;99.90;;;;;;5001676;28;20034;-71
2022/11/16 03:30:41;;;;;;;43.47;24.93;;;7.10;99.90;;;;;;5000583;28;20037;-70
2022/11/16 03:33:25;;;;;;;38.42;22.15;;;7.20;99.90;;;;;;4998566;28;20482;-71
2022/11/16 03:35:58;;;;;;;53.30;23.27;;;7.20;99.90;;;;;;5000052;28;20044;-71
2022/11/16 03:38:26;;;;;;;38.30;22.80;;;7.20;99.90;;;;;;5016211;28;20042;-71
2022/11/16 03:40:58;;;;;;;44.00;22.33;;;7.20;99.90;;;;;;5001280;28;20034;-71
2022/11/16 03:43:25;;;;;;;39.90;24.55;;;7.30;99.90;;;;;;4999725;28;20092;-71
2022/11/16 03:45:51;;;;;;;40.15;24.23;;;7.30;99.90;;;;;;4999084;28;20044;-71
2022/11/16 03:48:17;;;;;;;41.80;24.73;;;7.30;99.90;;;;;;5000438;28;20596;-71
2022/11/16 03:50:42;;;;;;;47.70;26.20;;;7.40;99.90;;;;;;5000927;28;20087;-70
2022/11/16 03:53:08;;;;;;;46.15;24.95;;;7.30;99.90;;;;;;5000589;28;20694;-70
2022/11/16 03:55:34;;;;;;;40.63;24.75;;;7.40;99.90;;;;;;4998044;28;20034;-71
2022/11/16 03:58:00;;;;;;;41.53;24.58;;;7.50;99.90;;;;;;4998424;28;20452;-71
2022/11/16 04:00:25;;;;;;;42.65;25.80;;;7.40;99.90;;;;;;4997301;28;20025;-71
2022/11/16 04:02:51;;;;;;;40.00;26.58;;;7.50;99.90;;;;;;4999887;28;20127;-71
2022/11/16 04:24:44;;;;;;;48.80;27.60;;;7.40;99.90;;;;;;4998299;28;20115;-70
2022/11/16 04:29:58;;;;;;;52.67;28.75;;;7.50;99.90;;;;;;4999250;28;20093;-70
2022/11/16 04:38:13;;;;;;;53.92;28.65;;;7.50;99.90;;;;;;5001344;28;20551;-71
2022/11/16 04:40:39;;;;;;;51.95;29.15;;;7.60;99.90;;;;;;4999513;28;20136;-70
2022/11/16 04:43:06;;;;;;;51.08;27.92;;;7.60;99.90;;;;;;4999431;28;20517;-71
2022/11/16 04:48:18;;;;;;;54.50;29.35;;;7.60;99.90;;;;;;4997349;28;20525;-70
2022/11/16 04:50:45;;;;;;;55.88;27.83;;;7.60;99.90;;;;;;4998862;28;20128;-70
2022/11/16 04:53:11;;;;;;;58.08;30.05;;;7.60;99.90;;;;;;4999252;28;20452;-70
2022/11/16 04:55:37;;;;;;;54.33;30.25;;;7.60;99.90;;;;;;5000386;28;20030;-70
2022/11/16 04:58:03;;;;;;;51.72;28.13;;;7.70;99.90;;;;;;4998430;28;20027;-71
2022/11/16 05:00:29;;;;;;;59.05;30.63;;;7.70;99.90;;;;;;4998836;28;20034;-70
2022/11/16 05:02:55;;;;;;;61.65;29.33;;;7.70;99.90;;;;;;4999123;28;20088;-70
2022/11/16 05:05:22;;;;;;;60.05;32.38;;;7.80;99.90;;;;;;4999301;28;20025;-70
2022/11/16 05:07:48;;;;;;;57.65;31.65;;;7.70;99.90;;;;;;4998972;28;20036;-70
2022/11/16 05:10:15;;;;;;;63.95;32.55;;;7.80;99.90;;;;;;4998232;28;20029;-70
2022/11/16 05:12:41;;;;;;;62.70;31.13;;;7.80;99.90;;;;;;5002824;28;20033;-70
2022/11/16 05:15:07;;;;;;;63.70;32.10;;;7.80;99.90;;;;;;4999279;28;20042;-70
2022/11/16 05:17:33;;;;;;;64.72;32.17;;;7.80;99.90;;;;;;4999123;28;20121;-70
2022/11/16 05:22:43;;;;;;;58.08;29.67;;;7.80;99.90;;;;;;4999333;28;20057;-70
2022/11/16 05:25:10;;;;;;;64.40;34.08;;;7.90;99.90;;;;;;4998045;28;20062;-70
2022/11/16 05:27:36;;;;;;;57.15;31.63;;;7.80;99.90;;;;;;4996823;28;20069;-70
2022/11/16 05:30:04;;;;;;;67.78;33.28;;;7.90;99.90;;;;;;4998160;28;20041;-70
2022/11/16 05:32:29;;;;;;;64.72;32.60;;;8.00;99.90;;;;;;4999255;28;20026;-70
2022/11/16 05:34:55;;;;;;;62.63;31.70;;;7.90;99.90;;;;;;4999156;28;20034;-70
2022/11/16 05:37:25;;;;;;;70.57;34.53;;;8.00;99.90;;;;;;5009208;28;20041;-70
2022/11/16 05:39:51;;;;;;;70.47;33.05;;;8.00;99.90;;;;;;5000740;28;20022;-71
2022/11/16 05:42:17;;;;;;;66.90;33.97;;;8.00;99.90;;;;;;5002101;28;20859;-70
2022/11/16 05:44:43;;;;;;;66.03;34.33;;;8.10;99.90;;;;;;5001986;28;20049;-70
2022/11/16 05:47:08;;;;;;;63.75;33.03;;;8.10;99.90;;;;;;5003009;28;20033;-70
2022/11/16 05:49:34;;;;;;;67.78;35.08;;;8.20;99.90;;;;;;5001818;28;20129;-70
2022/11/16 05:51:59;;;;;;;60.85;31.98;;;8.20;99.90;;;;;;5003431;28;20022;-70
2022/11/16 05:54:25;;;;;;;62.45;33.13;;;8.20;99.90;;;;;;5002142;28;20125;-68
2022/11/16 05:56:52;;;;;;;67.13;32.85;;;8.30;99.90;;;;;;5003094;28;20396;-69
2022/11/16 05:59:19;;;;;;;62.33;33.42;;;8.30;99.90;;;;;;5000829;28;20034;-71
2022/11/16 06:01:45;;;;;;;60.70;31.25;;;8.30;99.90;;;;;;5002373;28;20061;-71
2022/11/16 06:04:11;;;;;;;69.63;34.20;;;8.30;99.90;;;;;;5001474;28;20026;-71
2022/11/16 06:06:37;;;;;;;67.25;33.10;;;8.30;99.90;;;;;;5001759;28;20026;-70
2022/11/16 06:09:04;;;;;;;68.25;34.28;;;8.40;99.90;;;;;;5001808;28;20036;-69
2022/11/16 06:11:32;;;;;;;72.07;34.78;;;8.40;99.90;;;;;;5004059;28;20080;-70
2022/11/16 06:13:58;;;;;;;65.65;32.65;;;8.40;99.90;;;;;;5004494;28;20048;-70
2022/11/16 06:16:23;;;;;;;61.65;31.23;;;8.50;99.90;;;;;;5000094;28;20034;-70
2022/11/16 06:18:49;;;;;;;66.05;34.92;;;8.50;99.90;;;;;;5001165;28;20059;-71
2022/11/16 06:21:16;;;;;;;70.28;34.55;;;8.50;99.90;;;;;;5003423;28;20432;-71
2022/11/16 06:23:42;;;;;;;68.30;33.42;;;8.60;99.90;;;;;;5002222;28;20567;-70
2022/11/16 06:26:09;;;;;;;67.60;34.15;;;8.60;99.90;;;;;;5001763;28;20034;-71
2022/11/16 06:28:35;;;;;;;68.28;33.80;;;8.60;99.90;;;;;;4999157;28;20508;-71
2022/11/16 06:31:01;;;;;;;70.07;34.55;;;8.60;99.90;;;;;;5000769;28;20034;-71
2022/11/16 06:33:29;;;;;;;74.53;34.47;;;8.60;99.90;;;;;;5000670;28;20025;-71
2022/11/16 06:35:54;;;;;;;70.32;34.13;;;8.60;99.90;;;;;;5002842;28;20610;-71
2022/11/16 06:38:22;;;;;;;67.97;34.05;;;8.60;99.90;;;;;;5001959;28;20091;-71
2022/11/16 06:40:52;;;;;;;75.32;35.72;;;8.60;99.90;;;;;;5001936;28;20032;-71
2022/11/16 06:43:18;;;;;;;73.18;33.65;;;8.60;99.90;;;;;;5002540;28;20758;-71
2022/11/16 06:45:49;;;;;;;67.35;33.75;;;8.60;99.90;;;;;;5002875;28;20041;-71
2022/11/16 06:48:15;;;;;;;75.13;34.25;;;8.60;99.90;;;;;;5001307;28;20111;-71
2022/11/16 06:50:41;;;;;;;82.55;35.58;;;8.70;99.90;;;;;;5002489;28;20030;-71
2022/11/16 06:53:07;;;;;;;76.13;34.97;;;8.70;99.90;;;;;;5001093;28;20382;-71
2022/11/16 06:55:32;;;;;;;78.07;35.90;;;8.70;99.90;;;;;;5001785;28;20108;-71
2022/11/16 06:57:58;;;;;;;74.63;34.60;;;8.70;99.90;;;;;;5000262;28;20038;-71
2022/11/16 07:00:24;;;;;;;81.38;36.92;;;8.70;99.90;;;;;;5001965;28;20120;-71
2022/11/16 07:02:49;;;;;;;73.32;34.40;;;8.70;99.90;;;;;;5000903;28;20513;-71
2022/11/16 07:05:15;;;;;;;74.57;35.05;;;8.70;99.90;;;;;;5001973;28;20088;-70
2022/11/16 07:07:40;;;;;;;76.32;35.45;;;8.70;99.90;;;;;;5000912;28;20670;-71
2022/11/16 07:10:07;;;;;;;76.80;35.65;;;8.80;99.90;;;;;;5003061;28;20104;-71
2022/11/16 07:12:32;;;;;;;72.45;34.08;;;8.70;99.90;;;;;;5001548;28;20025;-71
2022/11/16 07:14:59;;;;;;;74.13;34.38;;;8.70;99.90;;;;;;4985242;28;20037;-72
2022/11/16 07:17:25;;;;;;;80.20;38.45;;;8.70;99.90;;;;;;5001362;28;20482;-71
2022/11/16 07:19:50;;;;;;;69.20;36.13;;;8.70;99.90;;;;;;5000325;28;20069;-71
2022/11/16 07:22:16;;;;;;;71.47;35.92;;;8.70;99.90;;;;;;5000346;28;20124;-71
2022/11/16 07:24:41;;;;;;;85.97;39.75;;;8.70;99.90;;;;;;4998782;28;20120;-69
2022/11/16 07:27:07;;;;;;;72.60;37.20;;;8.70;99.90;;;;;;5001898;28;20474;-69
2022/11/16 07:29:33;;;;;;;81.63;36.13;;;8.60;99.90;;;;;;5009892;28;20034;-70
2022/11/16 07:31:59;;;;;;;71.15;34.35;;;8.60;99.90;;;;;;5000568;28;20053;-69
2022/11/16 07:34:25;;;;;;;76.55;37.88;;;8.60;99.90;;;;;;5000772;28;20555;-68
2022/11/16 07:36:51;;;;;;;83.63;37.35;;;8.60;99.90;;;;;;4999829;28;20171;-68
2022/11/16 07:39:16;;;;;;;73.85;35.45;;;8.60;99.90;;;;;;4998423;28;20033;-67
2022/11/16 07:41:43;;;;;;;73.28;34.13;;;8.60;99.90;;;;;;5000361;28;20029;-68
2022/11/16 07:44:09;;;;;;;85.75;36.70;;;8.60;99.90;;;;;;4999791;28;20085;-68
2022/11/16 07:46:35;;;;;;;68.22;33.40;;;8.60;99.90;;;;;;4998500;28;20081;-68
2022/11/16 07:49:03;;;;;;;69.70;34.03;;;8.50;99.90;;;;;;5000594;28;20112;-68
2022/11/16 07:51:31;;;;;;;81.13;37.70;;;8.60;99.90;;;;;;4999999;28;20172;-68
2022/11/16 07:53:56;;;;;;;70.95;32.95;;;8.50;99.90;;;;;;5000914;28;20079;-68
2022/11/16 07:56:23;;;;;;;67.60;32.47;;;8.60;99.90;;;;;;4999672;28;20752;-68
2022/11/16 07:58:49;;;;;;;75.30;36.47;;;8.60;99.90;;;;;;4997953;28;20030;-68
2022/11/16 08:01:16;;;;;;;74.15;36.55;;;8.60;99.90;;;;;;5000303;28;20026;-68
2022/11/16 08:03:44;;;;;;;74.13;34.50;;;8.60;99.90;;;;;;4999313;28;20069;-67
2022/11/16 08:06:16;;;;;;;73.97;36.75;;;8.60;99.90;;;;;;4999318;28;20076;-68
2022/11/16 08:08:42;;;;;;;77.47;36.35;;;8.70;99.90;;;;;;4998752;28;20032;-68
2022/11/16 08:11:10;;;;;;;70.53;33.97;;;8.70;99.90;;;;;;5000872;28;20064;-69
2022/11/16 08:13:38;;;;;;;68.65;32.92;;;8.60;99.90;;;;;;4998353;28;20033;-69
2022/11/16 08:16:09;;;;;;;67.82;32.90;;;8.60;99.90;;;;;;5000427;28;20117;-69
2022/11/16 08:18:37;;;;;;;70.88;33.67;;;8.60;99.90;;;;;;5001959;28;20048;-68
2022/11/16 08:21:06;;;;;;;68.93;33.22;;;8.60;99.90;;;;;;5000404;28;20058;-69
2022/11/16 08:23:32;;;;;;;69.38;36.05;;;8.60;99.90;;;;;;4998656;28;20045;-69
2022/11/16 08:26:09;;;;;;;68.07;31.40;;;8.60;99.90;;;;;;4998975;28;20040;-68
2022/11/16 08:28:36;;;;;;;63.88;31.50;;;8.60;99.90;;;;;;4998346;28;20071;-68
2022/11/16 08:31:15;;;;;;;68.38;32.22;;;8.60;99.90;;;;;;4999588;28;20116;-68
2022/11/16 08:33:43;;;;;;;64.95;30.55;;;8.50;99.90;;;;;;5001121;28;20032;-69
2022/11/16 08:36:12;;;;;;;61.83;30.48;;;8.50;99.90;;;;;;4998710;28;20026;-69
2022/11/16 08:38:39;;;;;;;60.67;30.40;;;8.50;99.90;;;;;;4998712;28;20100;-68
2022/11/16 08:41:06;;;;;;;62.30;30.05;;;8.50;99.90;;;;;;4999873;28;20583;-68
2022/11/16 08:43:32;;;;;;;62.53;30.92;;;8.50;99.90;;;;;;4998380;28;20069;-68
2022/11/16 08:45:59;;;;;;;64.13;31.42;;;8.50;99.90;;;;;;4999966;28;20571;-68
2022/11/16 08:48:25;;;;;;;65.03;32.75;;;8.50;99.90;;;;;;5000228;28;20041;-69
2022/11/16 08:50:51;;;;;;;60.72;27.27;;;8.50;99.90;;;;;;4998854;28;20033;-69
2022/11/16 08:53:16;;;;;;;69.63;30.73;;;8.50;99.90;;;;;;4998020;28;20038;-68
2022/11/16 08:55:42;;;;;;;60.00;27.48;;;8.50;99.90;;;;;;4998548;28;20026;-68
2022/11/16 08:58:10;;;;;;;67.68;30.10;;;8.50;99.90;;;;;;4999206;28;20045;-69
2022/11/16 09:00:36;;;;;;;56.28;27.38;;;8.50;99.90;;;;;;4997044;28;20033;-69
2022/11/16 09:03:02;;;;;;;63.45;29.13;;;8.50;99.90;;;;;;4999672;28;20125;-68
2022/11/16 09:05:28;;;;;;;61.85;27.27;;;8.50;99.90;;;;;;4999376;28;20433;-68
2022/11/16 09:07:54;;;;;;;53.47;26.08;;;8.40;99.90;;;;;;4998802;28;20120;-68
2022/11/16 09:10:21;;;;;;;57.65;27.38;;;8.40;99.90;;;;;;4998490;28;20113;-68
2022/11/16 09:12:48;;;;;;;58.70;26.30;;;8.40;99.90;;;;;;4997118;28;20125;-68
2022/11/16 09:15:14;;;;;;;53.92;28.20;;;8.40;99.90;;;;;;5000166;28;20026;-68
2022/11/16 09:17:39;;;;;;;59.75;29.33;;;8.40;99.90;;;;;;5002203;28;20525;-68
2022/11/16 09:20:06;;;;;;;58.05;26.75;;;8.40;99.90;;;;;;4999807;28;20026;-68
2022/11/16 09:22:31;;;;;;;53.40;24.95;;;8.40;99.90;;;;;;4999176;28;20076;-68
2022/11/16 09:24:57;;;;;;;52.55;24.77;;;8.50;99.90;;;;;;4998956;28;20030;-68
2022/11/16 09:27:23;;;;;;;51.90;24.50;;;8.50;99.90;;;;;;4999561;28;20027;-68
2022/11/16 09:29:48;;;;;;;53.42;24.08;;;8.40;99.90;;;;;;4997217;28;20037;-68
2022/11/16 09:32:14;;;;;;;42.92;22.08;;;8.50;99.90;;;;;;4998135;28;20068;-69
2022/11/16 09:34:41;;;;;;;41.40;20.25;;;8.50;99.90;;;;;;4998185;28;20098;-70
2022/11/16 09:37:07;;;;;;;36.13;17.90;;;8.40;99.90;;;;;;4995158;28;20087;-70
2022/11/16 09:39:33;;;;;;;32.58;16.45;;;8.40;99.90;;;;;;4997886;28;20033;-70
2022/11/16 09:42:06;;;;;;;36.38;17.85;;;8.40;99.90;;;;;;4997498;28;20038;-69
2022/11/16 09:44:51;;;;;;;26.38;13.60;;;8.50;99.90;;;;;;4997476;28;20056;-68
2022/11/16 09:47:23;;;;;;;27.70;13.98;;;8.40;99.90;;;;;;4998715;28;20387;-68
2022/11/16 09:49:54;;;;;;;25.58;13.98;;;8.40;99.90;;;;;;4997533;28;20038;-69
2022/11/16 09:52:35;;;;;;;29.80;15.02;;;8.40;99.90;;;;;;4998225;28;20386;-69
2022/11/16 09:55:17;;;;;;;26.48;14.73;;;8.40;99.90;;;;;;4998563;28;20390;-69
2022/11/16 09:57:43;;;;;;;26.90;13.98;;;8.40;99.90;;;;;;4999122;28;20380;-69
2022/11/16 10:00:16;;;;;;;23.40;13.05;;;8.40;99.90;;;;;;4998372;28;20109;-70
2022/11/16 10:02:55;;;;;;;23.05;12.68;;;8.40;99.90;;;;;;4997764;28;20042;-69
2022/11/16 10:05:31;;;;;;;27.70;13.82;;;8.40;99.90;;;;;;4998249;28;20030;-70
2022/11/16 10:08:20;;;;;;;27.80;15.02;;;8.40;99.90;;;;;;4997005;28;20401;-68
2022/11/16 10:11:02;;;;;;;25.65;14.73;;;8.40;99.90;;;;;;4997602;28;20026;-69
2022/11/16 10:13:58;;;;;;;27.05;14.50;;;8.40;99.90;;;;;;4996034;28;20579;-70
2022/11/16 10:16:36;;;;;;;28.40;15.23;;;8.40;99.90;;;;;;4997899;28;20061;-70
2022/11/16 10:19:16;;;;;;;28.52;14.73;;;8.40;99.90;;;;;;4997378;28;20520;-69
2022/11/16 10:22:08;;;;;;;28.20;14.88;;;8.40;99.90;;;;;;4999813;28;20061;-69
2022/11/16 10:25:06;;;;;;;28.00;15.65;;;8.30;99.90;;;;;;5001233;28;20486;-70
2022/11/16 10:28:07;;;;;;;27.33;15.65;;;8.30;99.90;;;;;;5002148;28;20042;-68
2022/11/16 10:30:40;;;;;;;27.77;15.55;;;8.30;99.90;;;;;;5000764;28;20505;-68
2022/11/16 10:33:11;;;;;;;26.77;14.38;;;8.30;99.90;;;;;;5000391;28;20068;-69
2022/11/16 10:35:44;;;;;;;28.02;15.13;;;8.30;99.90;;;;;;5001990;28;20493;-69
2022/11/16 10:38:23;;;;;;;26.13;15.13;;;8.30;99.90;;;;;;5002584;28;20034;-69
2022/11/16 10:41:04;;;;;;;28.80;14.73;;;8.30;99.90;;;;;;5003009;28;20508;-70
2022/11/16 10:43:31;;;;;;;26.80;14.88;;;8.30;99.90;;;;;;5002079;28;20073;-69
2022/11/16 10:46:03;;;;;;;32.42;17.63;;;8.30;99.90;;;;;;5000126;28;20501;-69
2022/11/16 10:48:55;;;;;;;30.83;17.13;;;8.30;99.90;;;;;;5001724;28;20128;-69
2022/11/16 10:51:21;;;;;;;31.10;16.48;;;8.40;99.90;;;;;;5002364;28;20042;-69
2022/11/16 10:53:46;;;;;;;28.90;16.42;;;8.40;99.90;;;;;;5000815;28;20089;-69
2022/11/16 10:56:31;;;;;;;33.28;17.63;;;8.40;99.90;;;;;;5002599;28;20030;-69
2022/11/16 10:59:01;;;;;;;38.75;17.98;;;8.30;99.90;;;;;;5000161;28;20485;-69
2022/11/16 11:01:36;;;;;;;35.47;19.80;;;8.40;99.90;;;;;;5001951;28;20084;-69
2022/11/16 11:04:21;;;;;;;30.70;17.05;;;8.40;99.90;;;;;;5001673;28;20574;-69
2022/11/16 11:06:52;;;;;;;29.17;16.48;;;8.30;99.90;;;;;;5001665;28;20111;-69
2022/11/16 11:09:27;;;;;;;30.88;18.70;;;8.40;99.90;;;;;;5001468;28;20402;-69
2022/11/16 11:15:10;;;;;;;35.65;19.15;;;8.40;99.90;;;;;;5000997;28;20042;-69
2022/11/16 11:17:39;;;;;;;33.97;18.30;;;8.40;99.90;;;;;;5002692;28;20041;-70
2022/11/16 11:20:06;;;;;;;27.33;17.40;;;8.50;99.90;;;;;;5000177;28;20076;-69
2022/11/16 11:22:40;;;;;;;31.73;17.30;;;8.50;99.90;;;;;;5001578;28;20025;-68
2022/11/16 11:25:20;;;;;;;31.73;17.17;;;8.50;99.90;;;;;;5002578;28;20038;-69
2022/11/16 11:27:46;;;;;;;28.85;16.40;;;8.40;99.90;;;;;;5001863;28;20033;-70
2022/11/16 11:30:20;;;;;;;27.23;16.60;;;8.40;99.90;;;;;;5002092;28;20036;-69
2022/11/16 11:32:47;;;;;;;27.08;16.77;;;8.50;99.90;;;;;;5000135;28;20038;-69
2022/11/16 11:35:29;;;;;;;30.13;18.05;;;8.50;99.90;;;;;;5001610;28;20401;-69
2022/11/16 11:37:58;;;;;;;30.05;16.70;;;8.60;99.90;;;;;;5000364;28;20088;-69
2022/11/16 11:40:28;;;;;;;29.85;16.95;;;8.60;99.90;;;;;;5000971;28;20026;-69
2022/11/16 11:43:02;;;;;;;31.63;17.98;;;8.60;99.90;;;;;;5000318;28;20622;-70
2022/11/16 11:46:04;;;;;;;33.38;18.67;;;8.60;99.90;;;;;;5000856;28;20052;-69
2022/11/16 11:49:02;;;;;;;27.48;16.60;;;8.60;99.90;;;;;;5001032;28;20168;-69
2022/11/16 11:51:39;;;;;;;29.17;17.73;;;8.60;99.90;;;;;;5000497;28;20434;-69
2022/11/16 11:54:15;;;;;;;35.42;17.65;;;8.60;99.90;;;;;;4999516;28;20069;-69
2022/11/16 11:56:40;;;;;;;30.85;17.23;;;8.60;99.90;;;;;;5002171;28;20033;-69
2022/11/16 11:59:14;;;;;;;31.60;18.77;;;8.60;99.90;;;;;;5000851;28;20072;-69
2022/11/16 12:02:34;;;;;;;32.17;17.60;;;8.60;99.90;;;;;;5001696;28;20029;-70
2022/11/16 12:05:37;;;;;;;34.08;17.95;;;8.60;99.90;;;;;;5002864;28;20065;-69
2022/11/16 12:08:13;;;;;;;33.50;17.20;;;8.60;99.90;;;;;;4999019;28;20342;-68
2022/11/16 12:11:03;;;;;;;29.63;18.25;;;8.60;99.90;;;;;;5001381;28;20120;-68
2022/11/16 12:13:48;;;;;;;33.03;17.40;;;8.60;99.90;;;;;;5004631;28;20018;-69
2022/11/16 12:16:26;;;;;;;;;;;8.60;99.90;;;;;;5001970;28;20493;-69
2022/11/16 12:19:00;;;;;;;30.13;18.17;;;8.60;99.90;;;;;;5001270;28;19948;-69
2022/11/16 12:21:44;;;;;;;36.03;18.95;;;8.60;99.90;;;;;;4997803;28;20033;-69
2022/11/16 12:24:43;;;;;;;33.90;18.30;;;8.50;99.90;;;;;;4999503;28;21667;-68
2022/11/16 12:27:14;;;;;;;32.88;19.33;;;8.60;99.90;;;;;;4998107;28;20044;-68
2022/11/16 12:29:59;;;;;;;33.13;19.65;;;8.60;99.90;;;;;;4999733;28;20026;-68
2022/11/16 12:32:49;;;;;;;31.48;17.60;;;8.50;99.90;;;;;;5000127;28;20040;-69
2022/11/16 12:35:40;;;;;;;30.92;16.95;;;8.60;99.90;;;;;;5000402;28;20042;-68
2022/11/16 12:38:44;;;;;;;30.48;17.95;;;8.60;99.90;;;;;;5016618;28;20034;-68
2022/11/16 12:41:22;;;;;;;29.33;17.77;;;8.60;99.90;;;;;;4999031;28;20025;-67
2022/11/16 12:44:06;;;;;;;29.25;16.45;;;8.60;99.90;;;;;;4997835;28;20081;-69
2022/11/16 12:46:41;;;;;;;33.07;17.70;;;8.60;99.90;;;;;;5015351;28;20037;-69
2022/11/16 12:49:29;;;;;;;30.27;17.20;;;8.60;99.90;;;;;;4998341;28;20033;-68
2022/11/16 12:52:16;;;;;;;31.20;20.02;;;8.60;99.90;;;;;;4998736;28;20034;-68
2022/11/16 12:55:02;;;;;;;28.73;16.67;;;8.60;99.90;;;;;;4997597;28;20397;-67
2022/11/16 12:58:00;;;;;;;27.27;16.27;;;8.60;99.90;;;;;;4998556;28;20038;-69
2022/11/16 13:00:31;;;;;;;27.60;16.75;;;8.70;99.90;;;;;;5000160;28;20100;-67
2022/11/16 13:03:17;;;;;;;32.78;19.48;;;8.60;99.90;;;;;;5012798;28;20053;-67
2022/11/16 13:06:03;;;;;;;31.40;16.98;;;8.60;99.90;;;;;;5000506;28;20108;-67
2022/11/16 13:08:39;;;;;;;28.88;17.95;;;8.60;99.90;;;;;;4999166;28;20033;-68
2022/11/16 13:11:28;;;;;;;37.63;20.45;;;8.60;99.90;;;;;;4998774;28;20033;-68
2022/11/16 13:13:59;;;;;;;30.00;17.48;;;8.70;99.90;;;;;;4998471;28;20037;-67
2022/11/16 13:16:26;;;;;;;28.80;17.75;;;8.70;99.90;;;;;;4997482;28;20043;-67
2022/11/16 13:18:53;;;;;;;29.05;18.10;;;8.70;99.90;;;;;;5000897;28;20033;-69
2022/11/16 13:21:19;;;;;;;31.90;17.58;;;8.70;99.90;;;;;;4998141;28;20030;-69
2022/11/16 13:24:04;;;;;;;30.83;17.38;;;8.80;99.90;;;;;;4998428;28;20064;-70
2022/11/16 13:26:37;;;;;;;29.92;18.00;;;8.80;99.90;;;;;;5002761;28;20037;-69
2022/11/16 13:29:41;;;;;;;27.27;16.70;;;8.80;99.90;;;;;;5003021;28;20045;-68
2022/11/16 13:32:14;;;;;;;27.50;16.45;;;8.70;99.90;;;;;;5003712;28;20584;-69
2022/11/16 13:34:41;;;;;;;26.55;16.50;;;8.70;99.90;;;;;;5004194;28;20036;-68
2022/11/16 13:37:38;;;;;;;25.92;15.25;;;8.70;99.90;;;;;;5008671;28;20097;-69
2022/11/16 13:40:03;;;;;;;23.50;15.05;;;8.70;99.90;;;;;;5004507;28;20033;-67